createdAt,value
2018-06-13T00:02:21.420Z,84.70
2018-06-13T00:04:49.830Z,85.20
2018-06-13T00:07:18.309Z,85.80
2018-06-13T00:09:46.844Z,86.10
2018-06-13T00:12:15.305Z,86.60
2018-06-13T00:14:43.720Z,87.00
2018-06-13T00:17:12.143Z,88.20
2018-06-13T00:19:40.837Z,88.00
2018-06-13T00:22:09.277Z,88.10
2018-06-13T00:24:37.681Z,88.40
2018-06-13T00:27:06.107Z,88.30
2018-06-13T00:29:34.492Z,88.80
2018-06-13T00:32:02.897Z,89.00
2018-06-13T00:34:31.321Z,89.50
2018-06-13T00:36:59.936Z,90.00
2018-06-13T00:39:28.290Z,90.50
2018-06-13T00:41:56.715Z,90.20
2018-06-13T00:44:25.449Z,90.40
2018-06-13T00:46:53.900Z,90.30
2018-06-13T00:49:22.311Z,90.10
2018-06-13T00:51:50.770Z,90.10
2018-06-13T00:54:19.212Z,90.30
2018-06-13T00:56:47.651Z,90.10
2018-06-13T01:01:44.208Z,90.40
2018-06-13T01:04:12.673Z,90.60
2018-06-13T01:06:41.153Z,90.90
2018-06-13T01:09:09.580Z,90.90
2018-06-13T01:11:37.997Z,91.00
2018-06-13T01:14:06.701Z,91.50
2018-06-13T01:16:35.117Z,91.90
2018-06-13T01:19:03.612Z,91.60
2018-06-13T01:21:32.032Z,91.40
2018-06-13T01:24:00.483Z,91.00
2018-06-13T01:26:28.900Z,91.10
2018-06-13T01:28:57.374Z,91.70
2018-06-13T01:31:25.816Z,91.70
2018-06-13T01:33:54.277Z,91.60
2018-06-13T01:36:27.281Z,91.80
2018-06-13T01:38:56.168Z,91.80
2018-06-13T01:41:24.647Z,91.90
2018-06-13T01:43:53.075Z,91.70
2018-06-13T01:46:21.557Z,91.50
2018-06-13T01:48:49.956Z,91.40
2018-06-13T01:51:18.466Z,91.40
2018-06-13T01:53:46.898Z,91.30
2018-06-13T01:56:15.325Z,91.30
2018-06-13T01:58:43.705Z,91.20
2018-06-13T02:01:12.122Z,91.10
2018-06-13T02:03:40.538Z,91.30
2018-06-13T02:06:08.936Z,91.30
2018-06-13T02:08:37.374Z,91.10
2018-06-13T02:11:05.766Z,91.00
2018-06-13T02:13:34.211Z,91.00
2018-06-13T02:16:02.604Z,91.00
2018-06-13T02:18:31.049Z,91.00
2018-06-13T02:20:59.490Z,91.10
2018-06-13T02:23:27.926Z,91.30
2018-06-13T02:25:56.351Z,91.20
2018-06-13T02:28:24.828Z,91.20
2018-06-13T02:30:53.233Z,91.00
2018-06-13T02:33:21.668Z,91.30
2018-06-13T02:35:50.076Z,91.30
2018-06-13T02:38:18.478Z,91.40
2018-06-13T02:40:47.054Z,91.20
2018-06-13T02:43:15.524Z,91.30
2018-06-13T02:45:43.913Z,91.50
2018-06-13T02:50:40.429Z,90.90
2018-06-13T02:53:08.849Z,91.10
2018-06-13T02:55:37.253Z,90.80
2018-06-13T02:58:05.744Z,90.70
2018-06-13T03:00:34.221Z,90.60
2018-06-13T03:03:02.847Z,90.70
2018-06-13T03:05:31.299Z,90.70
2018-06-13T03:07:59.695Z,91.10
2018-06-13T03:10:28.148Z,91.10
2018-06-13T03:12:56.554Z,91.10
2018-06-13T03:15:24.986Z,91.20
2018-06-13T03:17:53.381Z,91.30
2018-06-13T03:20:21.840Z,91.60
2018-06-13T03:22:50.235Z,91.50
2018-06-13T03:25:18.725Z,91.60
2018-06-13T03:27:47.128Z,91.60
2018-06-13T03:30:15.621Z,91.70
2018-06-13T03:32:44.082Z,91.50
2018-06-13T03:35:12.566Z,91.20
2018-06-13T03:37:41.153Z,91.00
2018-06-13T03:40:09.588Z,90.90
2018-06-13T03:42:38.005Z,90.90
2018-06-13T03:45:06.652Z,90.60
2018-06-13T03:47:35.075Z,90.70
2018-06-13T03:50:03.516Z,90.60
2018-06-13T03:52:31.928Z,90.50
2018-06-13T03:55:00.309Z,90.10
2018-06-13T03:57:28.839Z,90.20
2018-06-13T03:59:57.241Z,89.90
2018-06-13T04:02:25.683Z,88.50
2018-06-13T04:04:54.117Z,88.40
2018-06-13T04:07:22.637Z,88.70
2018-06-13T04:09:51.048Z,88.30
2018-06-13T04:12:19.472Z,88.60
2018-06-13T04:14:47.881Z,88.20
2018-06-13T04:17:16.264Z,87.80
2018-06-13T04:19:44.662Z,87.80
2018-06-13T04:22:13.385Z,87.00
2018-06-13T04:24:41.814Z,87.00
2018-06-13T04:27:10.296Z,86.70
2018-06-13T04:29:38.721Z,86.70
2018-06-13T04:32:07.227Z,85.80
2018-06-13T04:37:03.776Z,85.30
2018-06-13T04:39:32.223Z,85.00
2018-06-13T04:42:00.895Z,84.40
2018-06-13T04:44:29.291Z,84.30
2018-06-13T04:46:57.712Z,83.80
2018-06-13T04:49:26.257Z,83.70
2018-06-13T04:51:54.632Z,83.40
2018-06-13T04:54:23.137Z,83.90
2018-06-13T04:56:51.583Z,83.60
2018-06-13T04:59:20.057Z,83.20
2018-06-13T05:01:48.429Z,82.80
2018-06-13T05:04:16.855Z,82.20
2018-06-13T05:06:45.324Z,82.30
2018-06-13T05:09:13.740Z,81.60
2018-06-13T05:11:42.163Z,81.10
2018-06-13T05:16:38.680Z,81.60
2018-06-13T05:19:07.128Z,81.90
2018-06-13T05:21:35.602Z,80.50
2018-06-13T05:24:04.009Z,80.60
2018-06-13T05:26:32.435Z,80.20
2018-06-13T05:31:29.029Z,77.90
2018-06-13T05:33:57.487Z,78.10
2018-06-13T05:36:25.941Z,77.30
2018-06-13T05:38:54.385Z,75.00
2018-06-13T05:41:22.928Z,74.30
2018-06-13T05:43:51.363Z,74.80
2018-06-13T05:46:19.789Z,74.80
2018-06-13T05:48:48.225Z,74.30
2018-06-13T05:51:16.644Z,74.40
2018-06-13T05:53:45.054Z,73.20
2018-06-13T05:56:13.467Z,72.00
2018-06-13T05:58:41.913Z,71.50
2018-06-13T06:01:10.388Z,71.60
2018-06-13T06:03:38.767Z,72.10
2018-06-13T06:06:07.172Z,72.30
2018-06-13T06:11:03.726Z,72.00
2018-06-13T06:13:32.157Z,71.20
2018-06-13T06:16:00.592Z,71.60
2018-06-13T06:18:29.065Z,70.00
2018-06-13T06:23:25.650Z,69.90
2018-06-13T06:25:54.025Z,70.30
2018-06-13T06:28:22.529Z,68.40
2018-06-13T06:30:50.955Z,68.30
2018-06-13T06:33:19.373Z,68.30
2018-06-13T06:35:47.798Z,69.60
2018-06-13T06:38:16.196Z,69.20
2018-06-13T06:40:44.658Z,68.30
2018-06-13T06:45:41.200Z,64.50
2018-06-13T06:48:09.602Z,65.20
2018-06-13T06:50:38.029Z,64.70
2018-06-13T06:53:06.451Z,64.20
2018-06-13T06:55:34.961Z,62.30
2018-06-13T06:58:03.304Z,60.80
2018-06-13T07:00:31.777Z,60.90
2018-06-13T07:03:00.173Z,60.20
2018-06-13T07:07:56.751Z,59.70
2018-06-13T07:10:25.175Z,56.80
2018-06-13T07:12:53.571Z,57.30
2018-06-13T07:15:22.037Z,56.80
2018-06-13T07:17:50.461Z,54.60
2018-06-13T07:20:19.457Z,54.90
2018-06-13T07:22:47.946Z,54.70
2018-06-13T07:25:16.366Z,54.40
2018-06-13T07:27:44.796Z,53.70
2018-06-13T07:30:13.246Z,53.00
2018-06-13T07:32:41.678Z,52.90
2018-06-13T07:35:10.082Z,53.40
2018-06-13T07:37:38.519Z,53.40
2018-06-13T07:40:07.338Z,52.00
2018-06-13T07:42:36.521Z,52.70
2018-06-13T07:45:05.101Z,51.30
2018-06-13T07:47:33.529Z,51.50
2018-06-13T07:50:01.986Z,52.90
2018-06-13T07:52:30.659Z,54.30
2018-06-13T07:54:59.060Z,55.70
2018-06-13T07:57:27.465Z,56.20
2018-06-13T07:59:55.868Z,58.10
2018-06-13T08:02:24.305Z,58.90
2018-06-13T08:04:52.717Z,59.30
2018-06-13T08:07:21.263Z,59.40
2018-06-13T08:09:49.662Z,60.50
2018-06-13T08:12:18.113Z,60.00
2018-06-13T08:14:46.565Z,60.60
2018-06-13T08:17:15.017Z,60.60
2018-06-13T08:19:43.473Z,60.40
2018-06-13T08:22:11.906Z,61.10
2018-06-13T08:24:54.008Z,62.00
2018-06-13T08:27:22.523Z,62.90
2018-06-13T08:29:51.025Z,63.30
2018-06-13T08:32:19.476Z,63.20
2018-06-13T08:34:47.871Z,62.90
2018-06-13T08:37:16.342Z,62.00
2018-06-13T08:39:44.793Z,61.60
2018-06-13T08:42:13.261Z,60.90
2018-06-13T08:44:41.685Z,60.30
2018-06-13T08:47:10.145Z,60.00
2018-06-13T08:49:38.568Z,60.00
2018-06-13T08:52:07.040Z,60.10
2018-06-13T08:54:35.488Z,59.70
2018-06-13T08:57:03.901Z,60.10
2018-06-13T08:59:32.330Z,60.40
2018-06-13T09:02:00.930Z,60.20
2018-06-13T09:04:29.352Z,60.00
2018-06-13T09:06:57.803Z,59.10
2018-06-13T09:09:26.264Z,58.80
2018-06-13T09:11:54.740Z,59.10
2018-06-13T09:14:23.222Z,59.30
2018-06-13T09:16:51.899Z,59.30
2018-06-13T09:19:20.353Z,58.80
2018-06-13T09:21:48.788Z,58.20
2018-06-13T09:24:17.357Z,58.80
2018-06-13T09:26:45.788Z,59.00
2018-06-13T09:29:14.257Z,58.80
2018-06-13T09:31:42.775Z,58.60
2018-06-13T09:34:11.480Z,58.80
2018-06-13T09:36:39.954Z,58.50
2018-06-13T09:39:08.416Z,58.30
2018-06-13T09:41:42.245Z,58.50
2018-06-13T09:44:10.701Z,58.40
2018-06-13T09:46:48.920Z,58.20
2018-06-13T09:49:14.224Z,58.00
2018-06-13T09:51:42.963Z,58.10
2018-06-13T09:54:11.368Z,57.80
2018-06-13T09:56:39.908Z,57.70
2018-06-13T09:59:14.085Z,58.50
2018-06-13T10:01:48.018Z,59.00
2018-06-13T10:04:16.433Z,58.70
2018-06-13T10:06:44.936Z,58.50
2018-06-13T10:09:16.452Z,57.80
2018-06-13T10:11:44.897Z,56.10
2018-06-13T10:14:13.341Z,56.40
2018-06-13T10:16:41.759Z,56.90
2018-06-13T10:19:10.197Z,56.60
2018-06-13T10:21:38.749Z,55.30
2018-06-13T10:24:07.149Z,54.70
2018-06-13T10:26:35.540Z,54.30
2018-06-13T10:29:03.985Z,53.90
2018-06-13T10:31:32.928Z,53.00
2018-06-13T10:34:01.458Z,52.40
2018-06-13T10:36:29.936Z,52.50
2018-06-13T10:38:58.391Z,51.90
2018-06-13T10:41:26.924Z,51.60
2018-06-13T10:43:55.342Z,50.40
2018-06-13T10:46:23.761Z,50.00
2018-06-13T10:48:52.264Z,50.60
2018-06-13T10:51:20.716Z,50.90
2018-06-13T10:53:49.148Z,50.90
2018-06-13T10:56:17.806Z,50.80
2018-06-13T10:58:46.230Z,51.80
2018-06-13T11:01:14.935Z,52.90
2018-06-13T11:03:43.393Z,53.30
2018-06-13T11:06:11.832Z,54.10
2018-06-13T11:08:40.294Z,54.70
2018-06-13T11:11:08.742Z,55.90
2018-06-13T11:13:38.183Z,55.10
2018-06-13T11:16:06.685Z,56.70
2018-06-13T11:18:35.119Z,56.90
2018-06-13T11:21:03.701Z,58.00
2018-06-13T11:23:32.150Z,59.10
2018-06-13T11:26:00.641Z,59.60
2018-06-13T11:28:29.079Z,59.70
2018-06-13T11:30:57.679Z,59.20
2018-06-13T11:33:26.405Z,58.60
2018-06-13T11:35:54.908Z,58.70
2018-06-13T11:38:23.302Z,58.10
2018-06-13T11:40:51.974Z,57.50
2018-06-13T11:43:20.389Z,56.70
2018-06-13T11:45:48.846Z,56.30
2018-06-13T11:48:17.283Z,55.40
2018-06-13T11:50:45.760Z,55.40
2018-06-13T11:53:14.216Z,55.20
2018-06-13T11:55:42.777Z,55.40
2018-06-13T11:58:11.203Z,55.40
2018-06-13T12:00:39.632Z,55.20
2018-06-13T12:03:08.119Z,55.80
2018-06-13T12:05:36.557Z,55.90
2018-06-13T12:08:05.041Z,56.80
2018-06-13T12:10:33.495Z,57.00
2018-06-13T12:13:02.097Z,57.40
2018-06-13T12:15:30.618Z,56.50
2018-06-13T12:17:59.144Z,56.20
2018-06-13T12:20:27.577Z,56.50
2018-06-13T12:22:56.022Z,56.20
2018-06-13T12:27:53.358Z,54.70
2018-06-13T12:30:21.938Z,53.90
2018-06-13T12:32:50.421Z,53.00
2018-06-13T12:35:18.889Z,51.90
2018-06-13T12:37:47.744Z,51.40
2018-06-13T12:40:16.194Z,48.80
2018-06-13T12:42:44.643Z,48.80
2018-06-13T12:45:13.088Z,48.10
2018-06-13T12:47:41.590Z,47.80
2018-06-13T12:50:10.307Z,48.10
2018-06-13T12:52:38.750Z,48.30
2018-06-13T12:55:07.258Z,49.20
2018-06-13T12:57:35.762Z,48.70
2018-06-13T13:00:04.817Z,49.70
2018-06-13T13:02:33.308Z,49.60
2018-06-13T13:05:01.717Z,50.60
2018-06-13T13:07:30.178Z,51.50
2018-06-13T13:09:58.602Z,50.50
2018-06-13T13:12:27.137Z,50.80
2018-06-13T13:14:55.594Z,50.80
2018-06-13T13:17:24.036Z,50.70
2018-06-13T13:19:52.481Z,49.10
2018-06-13T13:22:20.937Z,48.70
2018-06-13T13:24:49.401Z,48.40
2018-06-13T13:27:17.977Z,47.20
2018-06-13T13:29:46.449Z,47.50
2018-06-13T13:32:14.881Z,47.90
2018-06-13T13:34:43.380Z,47.80
2018-06-13T13:37:11.927Z,45.80
2018-06-13T13:39:40.366Z,44.30
2018-06-13T13:42:08.816Z,44.10
2018-06-13T13:44:37.269Z,43.80
2018-06-13T13:47:05.684Z,43.80
2018-06-13T13:49:34.233Z,44.30
2018-06-13T13:52:02.680Z,44.30
2018-06-13T13:54:31.137Z,44.40
2018-06-13T13:56:59.618Z,43.80
2018-06-13T13:59:28.109Z,44.80
2018-06-13T14:01:56.558Z,45.30
2018-06-13T14:04:24.988Z,45.80
2018-06-13T14:06:53.669Z,45.70
2018-06-13T14:09:22.041Z,46.10
2018-06-13T14:11:50.616Z,46.10
2018-06-13T14:14:19.196Z,45.50
2018-06-13T14:16:47.670Z,45.90
2018-06-13T14:19:16.143Z,46.60
2018-06-13T14:21:44.648Z,46.30
2018-06-13T14:24:13.142Z,45.80
2018-06-13T14:26:42.128Z,44.90
2018-06-13T14:29:11.334Z,45.40
2018-06-13T14:34:07.905Z,44.50
2018-06-13T14:36:36.302Z,44.50
2018-06-13T14:39:07.945Z,45.40
2018-06-13T14:41:36.449Z,45.50
2018-06-13T14:44:05.064Z,45.90
2018-06-13T14:46:33.498Z,44.80
2018-06-13T14:49:02.102Z,43.20
2018-06-13T14:51:30.672Z,42.50
2018-06-13T14:53:59.676Z,42.60
2018-06-13T14:56:30.056Z,43.10
2018-06-13T14:59:00.038Z,42.30
2018-06-13T15:01:28.705Z,42.30
2018-06-13T15:03:57.221Z,42.60
2018-06-13T15:06:26.312Z,41.90
2018-06-13T15:08:55.484Z,41.80
2018-06-13T15:11:24.065Z,41.70
2018-06-13T15:13:52.517Z,42.00
2018-06-13T15:16:21.225Z,43.60
2018-06-13T15:18:49.880Z,43.40
2018-06-13T15:21:18.320Z,45.20
2018-06-13T15:23:46.858Z,45.20
2018-06-13T15:26:15.309Z,45.70
2018-06-13T15:28:43.853Z,45.50
2018-06-13T15:31:12.285Z,44.60
2018-06-13T15:33:40.737Z,45.20
2018-06-13T15:36:09.143Z,44.60
2018-06-13T15:38:38.020Z,45.00
2018-06-13T15:41:06.746Z,44.80
2018-06-13T15:43:35.315Z,44.50
2018-06-13T15:46:03.785Z,44.50
2018-06-13T15:48:32.276Z,44.30
2018-06-13T15:51:00.794Z,43.00
2018-06-13T15:53:29.245Z,42.20
2018-06-13T15:55:57.690Z,42.70
2018-06-13T15:58:26.276Z,42.60
2018-06-13T16:00:54.697Z,43.30
2018-06-13T16:03:23.232Z,43.60
2018-06-13T16:05:51.685Z,44.00
2018-06-13T16:08:20.103Z,42.60
2018-06-13T16:10:48.607Z,42.90
2018-06-13T16:13:17.157Z,43.70
2018-06-13T16:15:45.633Z,43.50
2018-06-13T16:18:14.255Z,44.30
2018-06-13T16:20:42.817Z,43.20
2018-06-13T16:23:11.535Z,42.90
2018-06-13T16:25:40.001Z,42.20
2018-06-13T16:28:08.436Z,42.60
2018-06-13T16:30:36.860Z,43.00
2018-06-13T16:33:05.319Z,42.30
2018-06-13T16:35:33.773Z,42.20
2018-06-13T16:38:02.253Z,42.60
2018-06-13T16:40:30.685Z,42.50
2018-06-13T16:45:28.431Z,41.90
2018-06-13T16:47:57.005Z,41.80
2018-06-13T16:50:36.878Z,41.60
2018-06-13T16:53:12.113Z,41.90
2018-06-13T16:55:40.534Z,42.10
2018-06-13T16:58:09.007Z,42.30
2018-06-13T17:00:37.485Z,41.90
2018-06-13T17:03:05.941Z,40.60
2018-06-13T17:05:34.476Z,42.00
2018-06-13T17:08:02.898Z,42.90
2018-06-13T17:10:31.285Z,42.60
2018-06-13T17:12:59.842Z,42.20
2018-06-13T17:15:28.323Z,42.40
2018-06-13T17:17:56.726Z,43.10
2018-06-13T17:20:25.233Z,43.00
2018-06-13T17:22:53.666Z,43.80
2018-06-13T17:25:22.250Z,44.10
2018-06-13T17:27:50.752Z,44.40
2018-06-13T17:30:19.201Z,44.00
2018-06-13T17:32:47.661Z,43.40
2018-06-13T17:35:16.066Z,43.90
2018-06-13T17:37:44.555Z,43.40
2018-06-13T17:40:13.089Z,44.00
2018-06-13T17:42:41.717Z,44.40
2018-06-13T17:45:10.143Z,43.80
2018-06-13T17:47:38.586Z,44.00
2018-06-13T17:52:35.185Z,44.10
2018-06-13T17:55:03.654Z,44.70
2018-06-13T17:57:32.378Z,45.20
2018-06-13T18:00:00.874Z,45.40
2018-06-13T18:02:29.276Z,45.30
2018-06-13T18:04:59.798Z,45.50
2018-06-13T18:09:58.764Z,46.20
2018-06-13T18:12:28.141Z,46.20
2018-06-13T18:14:58.285Z,46.90
2018-06-13T18:17:27.853Z,47.30
2018-06-13T18:19:56.373Z,46.80
2018-06-13T18:22:25.113Z,47.00
2018-06-13T18:24:53.536Z,47.30
2018-06-13T18:27:21.992Z,47.40
2018-06-13T18:29:50.546Z,47.90
2018-06-13T18:32:19.012Z,48.50
2018-06-13T18:34:47.498Z,48.80
2018-06-13T18:37:16.522Z,48.70
2018-06-13T18:39:45.178Z,47.90
2018-06-13T18:42:13.630Z,48.10
2018-06-13T18:44:42.095Z,48.40
2018-06-13T18:47:10.665Z,48.40
2018-06-13T18:49:39.148Z,48.70
2018-06-13T18:52:07.717Z,48.80
2018-06-13T18:54:36.210Z,50.00
2018-06-13T18:57:04.635Z,50.30
2018-06-13T18:59:33.093Z,50.90
2018-06-13T19:02:01.531Z,51.20
2018-06-13T19:04:29.978Z,52.20
2018-06-13T19:06:58.489Z,52.60
2018-06-13T19:09:27.011Z,53.10
2018-06-13T19:11:55.494Z,52.90
2018-06-13T19:14:23.960Z,53.60
2018-06-13T19:16:52.439Z,53.40
2018-06-13T19:19:21.216Z,53.90
2018-06-13T19:21:49.678Z,54.40
2018-06-13T19:24:18.268Z,54.40
2018-06-13T19:26:47.090Z,54.20
2018-06-13T19:29:15.613Z,55.10
2018-06-13T19:31:45.111Z,55.60
2018-06-13T19:34:13.840Z,55.30
2018-06-13T19:36:42.370Z,56.00
2018-06-13T19:39:11.282Z,56.30
2018-06-13T19:41:39.759Z,56.40
2018-06-13T19:44:08.225Z,56.50
2018-06-13T19:46:36.839Z,56.40
2018-06-13T19:49:05.285Z,56.40
2018-06-13T19:51:33.892Z,56.40
2018-06-13T19:54:07.803Z,57.80
2018-06-13T19:56:36.368Z,58.00
2018-06-13T19:59:04.835Z,58.80
2018-06-13T20:01:33.260Z,59.30
2018-06-13T20:06:38.179Z,61.20
2018-06-13T20:09:09.326Z,61.20
2018-06-13T20:11:37.841Z,62.50
2018-06-13T20:14:11.591Z,64.20
2018-06-13T20:16:52.555Z,63.70
2018-06-13T20:19:26.395Z,64.40
2018-06-13T20:21:57.010Z,64.90
2018-06-13T20:24:25.735Z,65.80
2018-06-13T20:27:00.621Z,67.30
2018-06-13T20:29:34.423Z,69.30
2018-06-13T20:32:03.355Z,69.90
2018-06-13T20:34:32.293Z,71.50
2018-06-13T20:37:00.778Z,72.00
2018-06-13T20:39:29.338Z,71.50
2018-06-13T20:41:57.821Z,72.20
2018-06-13T20:44:26.482Z,73.50
2018-06-13T20:46:54.905Z,74.10
2018-06-13T20:49:23.356Z,75.50
2018-06-13T20:51:51.867Z,75.90
2018-06-13T20:54:20.373Z,77.20
2018-06-13T20:56:48.809Z,78.00
2018-06-13T20:59:17.268Z,79.10
2018-06-13T21:01:45.783Z,79.80
2018-06-13T21:04:14.251Z,81.70
2018-06-13T21:06:42.816Z,82.90
2018-06-13T21:09:11.347Z,84.50
2018-06-13T21:24:44.523Z,85.80
2018-06-13T21:27:12.968Z,87.20
2018-06-13T21:29:41.414Z,90.40
2018-06-13T21:32:10.106Z,90.80
2018-06-13T21:34:38.506Z,91.20
2018-06-13T21:37:06.915Z,91.90
2018-06-13T21:39:35.575Z,92.00
2018-06-13T21:42:04.053Z,92.20
2018-06-13T21:44:32.475Z,92.70
2018-06-13T21:47:00.909Z,92.40
2018-06-13T21:49:29.421Z,92.70
2018-06-13T21:51:57.848Z,92.80
2018-06-13T21:54:26.262Z,93.00
2018-06-13T21:56:54.666Z,93.10
2018-06-13T22:01:51.987Z,93.30
2018-06-13T22:04:20.422Z,93.40
2018-06-13T22:06:48.963Z,93.20
2018-06-13T22:09:17.375Z,93.60
2018-06-13T22:11:51.575Z,93.80
2018-06-13T22:14:20.102Z,94.40
2018-06-13T22:16:48.693Z,94.90
2018-06-13T22:19:17.112Z,94.90
2018-06-13T22:21:45.574Z,94.60
2018-06-13T22:24:13.997Z,94.50
2018-06-13T22:26:42.400Z,94.40
2018-06-13T22:29:10.824Z,94.60
2018-06-13T22:31:39.270Z,94.70
2018-06-13T22:34:07.988Z,94.90
2018-06-13T22:36:36.521Z,94.70
2018-06-13T22:39:08.138Z,94.50
2018-06-13T22:41:36.744Z,94.60
2018-06-13T22:44:05.279Z,94.90
2018-06-13T22:46:33.971Z,95.00
2018-06-13T22:49:02.393Z,95.50
2018-06-13T22:51:31.125Z,95.80
2018-06-13T22:53:59.559Z,95.60
2018-06-13T22:56:28.298Z,95.50
2018-06-13T22:58:56.704Z,95.70
2018-06-13T23:01:25.150Z,95.60
2018-06-13T23:03:53.698Z,95.80
2018-06-13T23:06:22.126Z,96.10
2018-06-13T23:08:50.554Z,96.80
2018-06-13T23:11:18.998Z,96.50
2018-06-13T23:13:47.413Z,96.50
2018-06-13T23:16:15.819Z,96.40
2018-06-13T23:18:44.268Z,96.30
2018-06-13T23:21:12.702Z,96.10
2018-06-13T23:23:41.107Z,96.00
2018-06-13T23:26:09.560Z,96.30
2018-06-13T23:28:37.969Z,96.20
2018-06-13T23:31:06.393Z,96.00
2018-06-13T23:33:35.076Z,96.50
2018-06-13T23:36:03.537Z,96.80
2018-06-13T23:38:31.983Z,96.70
2018-06-13T23:41:00.474Z,96.30
2018-06-13T23:43:28.885Z,96.90
2018-06-13T23:45:57.338Z,97.00
2018-06-13T23:48:25.741Z,96.70
2018-06-13T23:50:54.169Z,96.70
2018-06-13T23:53:22.652Z,96.50
2018-06-13T23:55:51.052Z,97.00
2018-06-13T23:58:19.511Z,97.20
